Airfield :
LOGIN :

Register | Disclaimer

   EN    FR    IT 

 










Legend :    VFR   Marginal VFR   IFR   Intensive IFR   Very Intensive IFR
Visi :
Ceiling :
>= 8 km
>= 3000ft
5 to 8 km
1000 to 3000 ft
1500m to 5 km
500 to 1000 ft
800 to 1500m
200 to 500 ft
< 800m
< 200 ft
Symbols :   Thunderstorms  Fog  Heavy snow  Heavy precipitations  Wind > 20 kt
SIGMETs :     Misc.  Thunderstorms  Icing  Turbulence  Mountain Waves  Volcanic Ashes






- Airport Elevation : 125 ft
- IATA code : MGL


EDLN - Mönchengladbach

CURRENT METAR :
  • 231750Z 28003KT 220V340 CAVOK 20/10 Q1015

EXPIRED METARs :
  • 231720Z 29005KT 230V320 CAVOK 20/10 Q1015
  • 231650Z VRB04KT CAVOK 20/10 Q1015
  • 231620Z 26005KT CAVOK 20/10 Q1015
  • 231550Z 27007KT 230V300 9999 FEW030 19/11 Q1015
  • 231520Z 22005KT 170V270 9999 VCSH FEW044TCU 20/11 Q1015
  • 231450Z VRB04KT 9999 FEW043 20/11 Q1015
  • 231420Z 22004KT 180V270 9999 SCT042 20/11 Q1015
  • 231350Z VRB04KT 9999 SCT041 20/11 Q1015
  • 231320Z 22005KT 160V280 9999 SCT038 20/10 Q1015

TAF TAF EDLN
Valid from the 23 at 18:00 until the 24 at 03:00 UTC


231700Z 2318/2403 VRB03KT CAVOK



MET'MAP, your aeronautical weather chart ! - Copyright ORBIFLY December 2007 - Disclaimer

ORBIFLY MET'MAP TEAM :

Programming & Development : Alexandra Zaïnal
Original concept : Baudouin d'Aumeries
Technical & hardware support : Manuel Goepfert
Assistance : Marc-Olivier Méhu




SOURCES & CREDITS :

   NOAA